createdAt,value
2023-04-01T00:00:54.381Z,5.57
2023-04-01T00:03:21.794Z,2.05
2023-04-01T00:05:48.524Z,3.55
2023-04-01T00:08:15.054Z,3.60
2023-04-01T00:10:41.428Z,5.63
2023-04-01T00:13:08.219Z,4.18
2023-04-01T00:15:34.988Z,6.50
2023-04-01T00:18:01.892Z,3.05
2023-04-01T00:20:29.326Z,3.47
2023-04-01T00:22:56.010Z,2.10
2023-04-01T00:25:23.080Z,3.00
2023-04-01T00:27:50.269Z,2.72
2023-04-01T00:30:17.318Z,1.80
2023-04-01T00:32:43.770Z,1.70
2023-04-01T00:35:11.142Z,3.58
2023-04-01T00:37:38.371Z,3.72
2023-04-01T00:40:07.322Z,4.55
2023-04-01T00:42:33.718Z,3.80
2023-04-01T00:45:36.268Z,4.28
2023-04-01T00:48:07.288Z,3.05
2023-04-01T00:50:35.364Z,6.15
2023-04-01T00:53:02.220Z,5.10
2023-04-01T00:55:52.450Z,3.85
2023-04-01T00:58:21.871Z,6.97
2023-04-01T01:00:49.522Z,2.53
2023-04-01T01:03:16.093Z,3.60
2023-04-01T01:06:08.486Z,2.45
2023-04-01T01:08:52.286Z,3.13
2023-04-01T01:11:24.013Z,2.15
2023-04-01T01:13:59.266Z,5.70
2023-04-01T01:16:31.316Z,2.58
2023-04-01T01:19:08.901Z,3.00
2023-04-01T01:21:50.424Z,3.53
2023-04-01T01:24:28.798Z,5.00
2023-04-01T01:27:10.269Z,2.20
2023-04-01T01:30:11.080Z,3.07
2023-04-01T01:33:15.385Z,2.40
2023-04-01T01:35:47.538Z,1.90
2023-04-01T01:40:43.914Z,2.05
2023-04-01T01:43:13.959Z,1.88
2023-04-01T01:45:44.084Z,3.95
2023-04-01T01:48:12.132Z,2.72
2023-04-01T01:50:40.172Z,4.35
2023-04-01T01:53:09.820Z,5.07
2023-04-01T01:55:41.417Z,2.30
2023-04-01T01:58:18.954Z,4.05
2023-04-01T02:00:49.634Z,4.63
2023-04-01T02:03:16.604Z,2.53
2023-04-01T02:05:43.286Z,2.95
2023-04-01T02:08:16.137Z,2.75
2023-04-01T02:10:46.636Z,3.67
2023-04-01T02:13:21.217Z,3.03
2023-04-01T02:15:48.878Z,4.43
2023-04-01T02:18:16.374Z,3.42
2023-04-01T02:20:43.530Z,2.72
2023-04-01T02:23:11.227Z,3.53
2023-04-01T02:25:38.638Z,2.88
2023-04-01T02:28:06.812Z,3.08
2023-04-01T02:30:35.298Z,5.93
2023-04-01T02:33:02.579Z,2.58
2023-04-01T02:35:29.069Z,5.68
2023-04-01T02:37:55.930Z,4.72
2023-04-01T02:40:22.428Z,3.78
2023-04-01T02:42:48.860Z,2.25
2023-04-01T02:45:15.660Z,2.22
2023-04-01T02:47:42.162Z,5.00
2023-04-01T02:50:09.528Z,2.85
2023-04-01T02:52:35.896Z,2.45
2023-04-01T02:55:03.061Z,3.78
2023-04-01T02:57:30.120Z,2.47
2023-04-01T02:59:56.640Z,4.47
2023-04-01T03:02:23.144Z,1.70
2023-04-01T03:04:49.591Z,3.42
2023-04-01T03:07:15.982Z,6.00
2023-04-01T03:09:42.362Z,2.15
2023-04-01T03:12:08.758Z,5.68
2023-04-01T03:14:35.291Z,2.20
2023-04-01T03:17:01.862Z,2.55
2023-04-01T03:19:28.339Z,2.63
2023-04-01T03:21:54.728Z,3.80
2023-04-01T03:24:21.410Z,3.13
2023-04-01T03:26:47.804Z,1.90
2023-04-01T03:29:16.518Z,3.20
2023-04-01T03:31:42.941Z,1.98
2023-04-01T03:34:09.879Z,2.03
2023-04-01T03:36:36.398Z,2.67
2023-04-01T03:39:04.564Z,1.20
2023-04-01T03:41:31.672Z,1.40
2023-04-01T03:43:58.179Z,1.92
2023-04-01T03:46:24.620Z,1.63
2023-04-01T03:48:51.027Z,1.40
2023-04-01T03:51:17.434Z,1.95
2023-04-01T03:53:43.829Z,2.53
2023-04-01T03:56:10.323Z,2.03
2023-04-01T03:58:37.318Z,1.73
2023-04-01T04:01:03.686Z,3.08
2023-04-01T04:03:30.830Z,1.20
2023-04-01T04:05:57.547Z,1.88
2023-04-01T04:08:23.953Z,1.15
2023-04-01T04:10:56.412Z,1.88
2023-04-01T04:13:22.789Z,2.17
2023-04-01T04:15:49.159Z,1.60
2023-04-01T04:18:15.677Z,1.85
2023-04-01T04:20:48.055Z,2.25
2023-04-01T04:23:14.442Z,2.55
2023-04-01T04:25:40.794Z,3.45
2023-04-01T04:28:07.174Z,2.65
2023-04-01T04:30:33.539Z,2.80
2023-04-01T04:32:59.955Z,1.85
2023-04-01T04:35:26.387Z,4.28
2023-04-01T04:37:52.852Z,1.98
2023-04-01T04:40:19.224Z,2.47
2023-04-01T04:42:46.015Z,1.77
2023-04-01T04:50:28.058Z,2.33
2023-04-01T04:52:54.397Z,2.05
2023-04-01T04:55:21.455Z,2.85
2023-04-01T04:57:48.034Z,2.80
2023-04-01T05:00:14.783Z,2.78
2023-04-01T05:02:41.321Z,2.83
2023-04-01T05:05:08.206Z,4.72
2023-04-01T05:07:34.711Z,5.30
2023-04-01T05:10:01.117Z,2.80
2023-04-01T05:12:27.489Z,3.42
2023-04-01T05:14:53.925Z,3.60
2023-04-01T05:17:20.364Z,4.03
2023-04-01T05:19:46.853Z,3.53
2023-04-01T05:22:13.211Z,4.15
2023-04-01T05:24:39.578Z,3.60
2023-04-01T05:27:05.981Z,3.47
2023-04-01T05:29:32.363Z,3.47
2023-04-01T05:31:58.733Z,4.18
2023-04-01T05:34:25.349Z,3.15
2023-04-01T05:36:53.052Z,3.42
2023-04-01T05:39:19.449Z,3.17
2023-04-01T05:41:46.132Z,3.30
2023-04-01T05:44:12.776Z,5.38
2023-04-01T05:46:39.367Z,4.05
2023-04-01T05:49:05.810Z,3.35
2023-04-01T05:51:32.303Z,2.58
2023-04-01T05:53:58.700Z,2.75
2023-04-01T05:56:25.290Z,2.88
2023-04-01T05:58:53.915Z,2.75
2023-04-01T06:01:20.324Z,2.40
2023-04-01T06:03:46.857Z,3.13
2023-04-01T06:06:32.921Z,2.63
2023-04-01T06:09:07.913Z,5.50
2023-04-01T06:11:37.231Z,4.65
2023-04-01T06:14:09.425Z,2.72
2023-04-01T06:19:36.541Z,3.30
2023-04-01T06:22:05.692Z,3.95
2023-04-01T06:24:36.589Z,2.95
2023-04-01T06:27:28.029Z,2.65
2023-04-01T06:30:06.400Z,2.42
2023-04-01T06:32:51.457Z,4.40
2023-04-01T06:35:41.959Z,2.70
2023-04-01T06:38:19.804Z,2.57
2023-04-01T06:41:17.914Z,2.78
2023-04-01T06:43:56.470Z,2.70
2023-04-01T06:46:56.524Z,2.92
2023-04-01T06:49:34.822Z,2.35
2023-04-01T06:52:11.814Z,2.35
2023-04-01T06:54:41.143Z,4.53
2023-04-01T06:57:33.872Z,2.78
2023-04-01T07:00:02.815Z,2.75
2023-04-01T07:02:40.430Z,2.80
2023-04-01T07:05:07.919Z,2.25
2023-04-01T07:07:50.422Z,2.38
2023-04-01T07:10:20.841Z,1.90
2023-04-01T07:12:59.434Z,1.98
2023-04-01T07:15:32.238Z,2.28
2023-04-01T07:18:43.314Z,2.03
2023-04-01T07:21:20.738Z,1.95
2023-04-01T07:23:48.148Z,2.20
2023-04-01T07:26:23.195Z,2.00
2023-04-01T07:28:52.369Z,3.92
2023-04-01T07:31:43.254Z,2.25
2023-04-01T07:34:29.702Z,1.88
2023-04-01T07:37:32.037Z,1.95
2023-04-01T07:40:32.590Z,3.08
2023-04-01T07:43:23.514Z,1.73
2023-04-01T07:46:02.380Z,2.00
2023-04-01T07:48:39.408Z,4.45
2023-04-01T07:51:14.767Z,1.90
2023-04-01T07:53:50.703Z,2.20
2023-04-01T07:56:41.768Z,1.70
2023-04-01T07:59:23.400Z,5.18
2023-04-01T08:02:16.280Z,2.47
2023-04-01T08:04:57.403Z,2.72
2023-04-01T08:07:27.068Z,3.72
2023-04-01T08:10:14.185Z,1.90
2023-04-01T08:12:43.571Z,2.33
2023-04-01T08:15:23.332Z,3.45
2023-04-01T08:17:58.898Z,2.28
2023-04-01T08:20:31.530Z,4.60
2023-04-01T08:23:13.795Z,2.92
2023-04-01T08:25:50.495Z,2.33
2023-04-01T08:28:45.903Z,3.45
2023-04-01T08:31:20.897Z,2.80
2023-04-01T08:33:48.660Z,3.05
2023-04-01T08:36:22.378Z,2.47
2023-04-01T08:39:11.425Z,2.92
2023-04-01T08:41:42.922Z,3.58
2023-04-01T08:44:15.194Z,3.10
2023-04-01T08:46:53.150Z,3.38
2023-04-01T08:49:42.732Z,3.38
2023-04-01T08:52:22.536Z,3.25
2023-04-01T08:55:20.229Z,3.10
2023-04-01T08:57:51.463Z,3.80
2023-04-01T09:00:37.333Z,2.92
2023-04-01T09:03:10.282Z,2.97
2023-04-01T09:06:05.537Z,3.58
2023-04-01T09:08:56.994Z,3.45
2023-04-01T09:12:01.739Z,2.97
2023-04-01T09:15:02.753Z,3.53
2023-04-01T09:17:47.970Z,3.15
2023-04-01T09:20:39.422Z,3.85
2023-04-01T09:23:12.141Z,3.90
2023-04-01T09:26:04.763Z,4.00
2023-04-01T09:29:00.787Z,4.18
2023-04-01T09:31:49.684Z,4.35
2023-04-01T09:34:34.775Z,4.25
2023-04-01T09:37:08.299Z,4.45
2023-04-01T09:39:39.364Z,4.65
2023-04-01T09:42:35.356Z,4.93
2023-04-01T09:45:08.061Z,4.97
2023-04-01T09:47:37.341Z,6.05
2023-04-01T09:50:44.000Z,5.20
2023-04-01T09:53:35.197Z,5.10
2023-04-01T09:56:29.353Z,4.85
2023-04-01T09:59:22.774Z,5.40
2023-04-01T10:02:35.261Z,5.63
2023-04-01T10:05:40.933Z,7.88
2023-04-01T10:08:41.367Z,7.53
2023-04-01T10:11:22.968Z,9.52
2023-04-01T10:14:12.528Z,7.50
2023-04-01T10:17:17.786Z,8.50
2023-04-01T10:20:05.254Z,8.80
2023-04-01T10:22:37.457Z,7.70
2023-04-01T10:27:57.943Z,9.23
2023-04-01T10:30:35.503Z,9.73
2023-04-01T10:33:23.302Z,8.88
2023-04-01T10:36:26.479Z,9.68
2023-04-01T10:39:31.069Z,10.35
2023-04-01T10:42:29.516Z,12.38
2023-04-01T10:45:33.608Z,11.95
2023-04-01T10:48:25.849Z,10.40
2023-04-01T10:51:06.759Z,10.38
2023-04-01T10:54:08.562Z,9.15
2023-04-01T10:56:41.439Z,9.80
2023-04-01T10:59:22.746Z,10.68
2023-04-01T11:02:10.015Z,9.90
2023-04-01T11:05:14.770Z,10.43
2023-04-01T11:08:02.769Z,9.32
2023-04-01T11:10:37.503Z,8.75
2023-04-01T11:13:38.101Z,9.00
2023-04-01T11:16:20.501Z,9.90
2023-04-01T11:19:17.188Z,9.57
2023-04-01T11:22:10.402Z,9.02
2023-04-01T11:24:43.591Z,9.88
2023-04-01T11:27:39.722Z,9.13
2023-04-01T11:30:42.254Z,8.55
2023-04-01T11:33:35.979Z,8.02
2023-04-01T11:36:20.879Z,8.35
2023-04-01T11:38:56.655Z,8.10
2023-04-01T11:42:07.558Z,6.43
2023-04-01T11:44:36.348Z,8.75
2023-04-01T11:47:34.139Z,6.60
2023-04-01T11:50:13.582Z,6.72
2023-04-01T11:53:11.045Z,5.68
2023-04-01T11:56:11.446Z,6.25
2023-04-01T11:59:09.777Z,6.03
2023-04-01T12:01:44.428Z,6.22
2023-04-01T12:04:32.460Z,7.70
2023-04-01T12:07:26.811Z,5.85
2023-04-01T12:10:05.097Z,6.10
2023-04-01T12:12:54.005Z,6.65
2023-04-01T12:15:42.014Z,7.15
2023-04-01T12:18:27.051Z,8.10
2023-04-01T12:21:16.400Z,10.60
2023-04-01T12:24:07.155Z,10.85
2023-04-01T12:26:56.435Z,11.23
2023-04-01T12:29:50.271Z,12.25
2023-04-01T12:32:25.905Z,14.25
2023-04-01T12:35:07.566Z,11.05
2023-04-01T12:37:46.946Z,9.25
2023-04-01T12:40:44.248Z,10.05
2023-04-01T12:43:41.654Z,8.52
2023-04-01T12:46:50.204Z,8.63
2023-04-01T12:49:16.479Z,8.52
2023-04-01T12:51:48.105Z,7.55
2023-04-01T12:54:46.459Z,8.57
2023-04-01T12:57:40.095Z,9.55
2023-04-01T13:00:20.001Z,9.18
2023-04-01T13:03:31.123Z,7.82
2023-04-01T13:06:16.890Z,8.32
2023-04-01T13:09:28.891Z,7.70
2023-04-01T13:12:19.849Z,8.65
2023-04-01T13:15:23.498Z,8.25
2023-04-01T13:18:14.322Z,9.50
2023-04-01T13:20:45.524Z,12.30
2023-04-01T13:23:17.899Z,11.43
2023-04-01T13:26:13.646Z,14.40
2023-04-01T13:28:50.859Z,12.65
2023-04-01T13:31:42.474Z,11.68
2023-04-01T13:34:20.860Z,10.97
2023-04-01T13:36:53.277Z,11.23
2023-04-01T13:39:40.727Z,11.13
2023-04-01T13:42:07.027Z,11.88
2023-04-01T13:44:49.547Z,10.05
2023-04-01T13:47:40.381Z,9.48
2023-04-01T13:50:44.444Z,8.70
2023-04-01T13:53:36.728Z,7.72
2023-04-01T13:56:15.232Z,9.38
2023-04-01T13:59:05.657Z,8.75
2023-04-01T14:01:42.435Z,6.97
2023-04-01T14:04:21.031Z,7.82
2023-04-01T14:06:59.077Z,9.43
2023-04-01T14:10:03.877Z,6.85
2023-04-01T14:12:47.387Z,7.22
2023-04-01T14:15:34.469Z,7.43
2023-04-01T14:18:04.028Z,8.35
2023-04-01T14:20:34.373Z,6.05
2023-04-01T14:23:23.222Z,5.38
2023-04-01T14:26:03.132Z,8.88
2023-04-01T14:28:54.716Z,7.63
2023-04-01T14:31:44.344Z,7.10
2023-04-01T14:34:13.476Z,8.57
2023-04-01T14:37:14.061Z,7.20
2023-04-01T14:40:00.293Z,6.15
2023-04-01T14:42:46.506Z,7.65
2023-04-01T14:45:21.784Z,6.85
2023-04-01T14:47:54.135Z,8.05
2023-04-01T14:50:25.600Z,7.95
2023-04-01T14:53:18.340Z,8.93
2023-04-01T14:55:44.611Z,8.02
2023-04-01T14:58:16.205Z,7.25
2023-04-01T15:01:05.770Z,10.82
2023-04-01T15:03:52.873Z,9.88
2023-04-01T15:06:35.926Z,13.18
2023-04-01T15:09:20.378Z,12.93
2023-04-01T15:12:01.364Z,13.65
2023-04-01T15:14:39.269Z,13.90
2023-04-01T15:17:24.098Z,11.65
2023-04-01T15:20:27.315Z,13.32
2023-04-01T15:22:59.929Z,12.77
2023-04-01T15:25:36.712Z,14.50
2023-04-01T15:28:16.985Z,13.13
2023-04-01T15:30:43.264Z,15.80
2023-04-01T15:33:18.274Z,13.35
2023-04-01T15:36:11.551Z,14.82
2023-04-01T15:39:01.829Z,13.98
2023-04-01T15:41:48.044Z,16.60
2023-04-01T15:44:51.851Z,12.88
2023-04-01T15:47:27.443Z,17.55
2023-04-01T15:50:18.260Z,16.20
2023-04-01T15:53:07.168Z,17.23
2023-04-01T15:55:49.443Z,15.63
2023-04-01T15:58:21.849Z,17.13
2023-04-01T16:01:16.076Z,15.55
2023-04-01T16:04:23.024Z,16.35
2023-04-01T16:07:00.906Z,14.70
2023-04-01T16:09:52.175Z,15.32
2023-04-01T16:12:57.632Z,15.70
2023-04-01T16:15:28.771Z,15.13
2023-04-01T16:18:33.712Z,15.80
2023-04-01T16:21:04.129Z,17.17
2023-04-01T16:23:51.518Z,17.08
2023-04-01T16:26:29.742Z,14.82
2023-04-01T16:29:01.274Z,16.50
2023-04-01T16:31:45.065Z,16.88
2023-04-01T16:34:27.556Z,16.10
2023-04-01T16:37:08.363Z,18.67
2023-04-01T16:39:46.645Z,24.08
2023-04-01T16:42:32.256Z,20.58
2023-04-01T16:45:09.438Z,20.08
2023-04-01T16:47:51.353Z,25.38
2023-04-01T16:50:24.896Z,26.10
2023-04-01T16:53:09.399Z,23.00
2023-04-01T16:55:48.272Z,25.55
2023-04-01T16:58:21.904Z,28.38
2023-04-01T17:01:01.451Z,26.52
2023-04-01T17:03:30.871Z,25.50
2023-04-01T17:06:32.054Z,28.20
2023-04-01T17:09:10.688Z,29.80
2023-04-01T17:11:44.599Z,25.85
2023-04-01T17:14:30.510Z,28.17
2023-04-01T17:17:18.610Z,25.42
2023-04-01T17:20:02.127Z,31.85
2023-04-01T17:22:52.919Z,28.30
2023-04-01T17:25:34.585Z,23.83
2023-04-01T17:28:25.439Z,22.77
2023-04-01T17:31:04.109Z,21.73
2023-04-01T17:33:50.714Z,24.63
2023-04-01T17:36:35.846Z,19.02
2023-04-01T17:39:21.067Z,21.08
2023-04-01T17:42:31.976Z,18.58
2023-04-01T17:45:23.399Z,19.83
2023-04-01T17:48:01.080Z,18.67
2023-04-01T17:51:04.634Z,17.73
2023-04-01T17:53:43.488Z,24.13
2023-04-01T17:56:29.871Z,21.63
2023-04-01T17:59:24.150Z,22.85
2023-04-01T18:02:15.904Z,22.58
2023-04-01T18:05:24.250Z,20.83
2023-04-01T18:08:05.209Z,23.23
2023-04-01T18:10:57.932Z,23.58
2023-04-01T18:13:25.324Z,22.90
2023-04-01T18:16:02.209Z,25.42
2023-04-01T18:18:43.673Z,26.02
2023-04-01T18:21:18.621Z,26.13
2023-04-01T18:24:02.420Z,25.63
2023-04-01T18:26:32.591Z,23.13
2023-04-01T18:29:05.332Z,25.27
2023-04-01T18:31:39.454Z,24.52
2023-04-01T18:34:17.504Z,25.55
2023-04-01T18:36:46.936Z,28.65
2023-04-01T18:39:18.012Z,26.38
2023-04-01T18:41:57.300Z,30.65
2023-04-01T18:44:30.199Z,31.38
2023-04-01T18:47:21.995Z,29.60
2023-04-01T18:50:08.572Z,22.17
2023-04-01T18:52:42.646Z,21.67
2023-04-01T18:55:14.994Z,24.08
2023-04-01T18:57:51.257Z,24.75
2023-04-01T19:00:28.066Z,25.85
2023-04-01T19:03:35.849Z,29.38
2023-04-01T19:06:14.779Z,28.08
2023-04-01T19:08:41.662Z,27.15
2023-04-01T19:11:28.094Z,15.20
2023-04-01T19:14:12.949Z,7.93
2023-04-01T19:17:10.746Z,9.15
2023-04-01T19:19:40.243Z,8.18
2023-04-01T19:22:44.316Z,7.28
2023-04-01T19:25:27.764Z,5.25
2023-04-01T19:28:03.587Z,5.45
2023-04-01T19:30:48.604Z,6.90
2023-04-01T19:33:48.976Z,4.80
2023-04-01T19:36:17.857Z,6.32
2023-04-01T19:38:53.970Z,5.72
2023-04-01T19:41:40.538Z,7.45
2023-04-01T19:44:19.084Z,5.38
2023-04-01T19:47:03.132Z,6.10
2023-04-01T19:49:51.462Z,7.20
2023-04-01T19:52:37.659Z,6.15
2023-04-01T19:55:51.383Z,5.70
2023-04-01T19:58:32.282Z,5.07
2023-04-01T20:01:00.432Z,6.72
2023-04-01T20:03:52.301Z,9.20
2023-04-01T20:06:36.959Z,8.65
2023-04-01T20:09:34.396Z,7.15
2023-04-01T20:12:12.992Z,7.85
2023-04-01T20:14:55.186Z,8.43
2023-04-01T20:17:25.402Z,8.52
2023-04-01T20:20:19.904Z,10.25
2023-04-01T20:22:46.379Z,8.23
2023-04-01T20:25:20.408Z,7.30
2023-04-01T20:28:19.824Z,7.35
2023-04-01T20:30:58.347Z,7.10
2023-04-01T20:34:02.595Z,8.52
2023-04-01T20:36:37.070Z,7.57
2023-04-01T20:39:25.239Z,8.65
2023-04-01T20:42:29.671Z,7.97
2023-04-01T20:45:11.692Z,10.82
2023-04-01T20:48:02.468Z,10.55
2023-04-01T20:50:47.657Z,8.32
2023-04-01T20:53:17.848Z,9.70
2023-04-01T20:55:47.287Z,9.45
2023-04-01T20:58:24.847Z,7.05
2023-04-01T21:01:36.694Z,7.45
2023-04-01T21:04:10.037Z,7.28
2023-04-01T21:06:45.562Z,7.60
2023-04-01T21:09:36.832Z,6.53
2023-04-01T21:12:15.310Z,7.22
2023-04-01T21:14:50.736Z,6.90
2023-04-01T21:17:23.188Z,7.95
2023-04-01T21:20:05.570Z,6.93
2023-04-01T21:25:36.819Z,7.90
2023-04-01T21:28:12.681Z,7.78
2023-04-01T21:30:45.310Z,7.70
2023-04-01T21:33:23.765Z,9.45
2023-04-01T21:36:02.286Z,9.98
2023-04-01T21:39:04.002Z,9.40
2023-04-01T21:42:05.571Z,15.70
2023-04-01T21:44:34.710Z,14.57
2023-04-01T21:47:31.158Z,17.98
2023-04-01T21:50:29.912Z,14.18
2023-04-01T21:53:14.975Z,13.13
2023-04-01T21:56:09.313Z,11.35
2023-04-01T21:59:07.181Z,10.95
2023-04-01T22:01:48.777Z,10.38
2023-04-01T22:04:33.116Z,12.07
2023-04-01T22:07:19.054Z,13.35
2023-04-01T22:10:06.711Z,15.07
2023-04-01T22:12:38.321Z,16.13
2023-04-01T22:15:34.077Z,16.20
2023-04-01T22:18:10.407Z,15.05
2023-04-01T22:20:58.454Z,13.90
2023-04-01T22:23:37.125Z,14.90
2023-04-01T22:26:18.108Z,14.63
2023-04-01T22:29:17.874Z,12.50
2023-04-01T22:31:47.389Z,13.32
2023-04-01T22:34:51.117Z,12.45
2023-04-01T22:37:46.295Z,9.88
2023-04-01T22:40:21.826Z,10.48
2023-04-01T22:42:54.782Z,9.95
2023-04-01T22:45:38.552Z,9.73
2023-04-01T22:48:27.369Z,10.18
2023-04-01T22:51:14.967Z,10.40
2023-04-01T22:53:50.451Z,10.90
2023-04-01T22:56:21.145Z,12.70
2023-04-01T22:58:53.090Z,11.98
2023-04-01T23:01:25.812Z,11.90
2023-04-01T23:03:52.763Z,13.05
2023-04-01T23:06:27.061Z,12.93
2023-04-01T23:09:05.415Z,12.68
2023-04-01T23:11:48.095Z,14.73
2023-04-01T23:14:27.751Z,14.65
2023-04-01T23:17:13.612Z,13.15
2023-04-01T23:20:12.429Z,13.88
2023-04-01T23:23:05.173Z,15.27
2023-04-01T23:25:45.973Z,13.10
2023-04-01T23:28:15.367Z,15.13
2023-04-01T23:30:41.697Z,10.77
2023-04-01T23:33:21.514Z,10.20
2023-04-01T23:36:05.900Z,8.60
2023-04-01T23:38:35.404Z,11.35
2023-04-01T23:41:02.336Z,15.13
2023-04-01T23:43:34.650Z,11.18
2023-04-01T23:46:04.466Z,10.95
2023-04-01T23:48:42.875Z,11.02
2023-04-01T23:51:21.921Z,10.63
2023-04-01T23:53:49.137Z,9.98
2023-04-01T23:56:19.050Z,10.20
2023-04-01T23:58:48.776Z,12.43
